Time;durP1;ratioP1;P1;durP2;ratioP2;P2;SDS_P1;SDS_P2;PMS_P1;PMS_P2;Temp;Humidity;BMP_temperature;BMP_pressure;BME280_temperature;BME280_humidity;BME280_pressure;Samples;Min_cycle;Max_cycle;Signal;HPM_P1;HPM_P2
2022/04/18 00:01:45;;;;;;;;;;;4.80;96.60;;;;;;5068772;28;19940;-75
2022/04/18 00:04:12;;;;;;;;;;;4.80;96.60;;;;;;5069722;28;19924;-75
2022/04/18 00:06:39;;;;;;;;;;;4.80;96.70;;;;;;5065636;28;19933;-75
2022/04/18 00:09:05;;;;;;;;;;;4.80;96.80;;;;;;5069662;28;20374;-75
2022/04/18 00:11:32;;;;;;;;;;;4.70;96.90;;;;;;5069724;28;19925;-74
2022/04/18 00:13:59;;;;;;;;;;;4.60;97.00;;;;;;5063206;28;19932;-75
2022/04/18 00:16:26;;;;;;;;;;;4.70;97.10;;;;;;5069203;28;20011;-75
2022/04/18 00:18:53;;;;;;;;;;;4.70;97.20;;;;;;5064296;28;19924;-75
2022/04/18 00:21:20;;;;;;;;;;;4.60;97.10;;;;;;5068457;28;20469;-75
2022/04/18 00:23:47;;;;;;;;;;;4.60;97.20;;;;;;5062222;28;20050;-75
2022/04/18 00:26:13;;;;;;;;;;;4.50;97.40;;;;;;5065553;28;20571;-75
2022/04/18 00:28:40;;;;;;;;;;;4.40;97.40;;;;;;5059527;28;19924;-75
2022/04/18 00:31:14;;;;;;;;;;;4.40;97.60;;;;;;5065047;28;19963;-75
2022/04/18 00:33:43;;;;;;;;;;;4.40;97.70;;;;;;5070802;28;20455;-75
2022/04/18 00:36:09;;;;;;;;;;;4.50;97.80;;;;;;5067851;28;19960;-75
2022/04/18 00:38:36;;;;;;;;;;;4.40;97.70;;;;;;5068156;28;19930;-75
2022/04/18 00:41:03;;;;;;;;;;;4.50;97.70;;;;;;5069109;28;19930;-75
2022/04/18 00:43:42;;;;;;;;;;;4.40;97.70;;;;;;5069982;28;20194;-75
2022/04/18 00:46:09;;;;;;;;;;;4.30;97.80;;;;;;5066132;28;20290;-75
2022/04/18 00:48:36;;;;;;;;;;;4.30;98.00;;;;;;5052621;28;19930;-75
2022/04/18 00:51:22;;;;;;;;;;;4.30;98.10;;;;;;5101281;28;19946;-75
2022/04/18 00:53:52;;;;;;;;;;;4.20;98.20;;;;;;5066092;28;19932;-75
2022/04/18 00:56:21;;;;;;;;;;;4.10;98.50;;;;;;5065847;28;19943;-75
2022/04/18 00:58:49;;;;;;;;;;;4.10;98.70;;;;;;5066039;28;19931;-75
2022/04/18 01:01:17;;;;;;;;;;;4.10;98.80;;;;;;5068233;28;19924;-75
2022/04/18 01:03:44;;;;;;;;;;;4.10;98.90;;;;;;5067514;28;19932;-75
2022/04/18 01:06:13;;;;;;;;;;;4.10;99.10;;;;;;5067220;28;19975;-75
2022/04/18 01:08:40;;;;;;;;;;;4.10;99.20;;;;;;5067739;28;19951;-75
2022/04/18 01:11:09;;;;;;;;;;;4.00;99.40;;;;;;5062305;28;19935;-75
2022/04/18 01:13:43;;;;;;;;;;;4.00;99.90;;;;;;5069400;28;19970;-75
2022/04/18 01:16:10;;;;;;;;;;;4.00;99.80;;;;;;5064940;28;19924;-75
2022/04/18 01:18:37;;;;;;;;;;;4.00;99.80;;;;;;5063373;28;20020;-75
2022/04/18 01:21:05;;;;;;;;;;;4.00;99.90;;;;;;5067164;28;19924;-75
2022/04/18 01:23:32;;;;;;;;;;;4.00;99.90;;;;;;5066623;28;19933;-75
2022/04/18 01:28:58;;;;;;;;;;;3.90;99.90;;;;;;5064734;28;19924;-75
2022/04/18 01:31:31;;;;;;;;;;;3.90;99.90;;;;;;5065114;28;19924;-75
2022/04/18 01:34:02;;;;;;;;;;;3.80;99.90;;;;;;5059044;28;19931;-75
2022/04/18 01:36:31;;;;;;;;;;;3.80;99.90;;;;;;5062926;28;20501;-75
2022/04/18 01:38:58;;;;;;;;;;;3.80;99.90;;;;;;5064925;28;19925;-77
2022/04/18 01:41:24;;;;;;;;;;;3.80;99.90;;;;;;5065420;28;20371;-78
2022/04/18 01:43:51;;;;;;;;;;;3.80;99.90;;;;;;5066393;28;19981;-75
2022/04/18 01:46:18;;;;;;;;;;;3.90;99.90;;;;;;5066879;28;19929;-75
2022/04/18 01:48:46;;;;;;;;;;;3.90;99.90;;;;;;5066596;28;20295;-75
2022/04/18 01:51:16;;;;;;;;;;;3.90;99.90;;;;;;5067763;28;19931;-75
2022/04/18 01:53:42;;;;;;;;;;;3.90;99.90;;;;;;5067303;28;19925;-76
2022/04/18 01:56:09;;;;;;;;;;;3.90;99.90;;;;;;5066609;28;19929;-76
2022/04/18 01:58:36;;;;;;;;;;;3.90;99.90;;;;;;5068648;28;19924;-76
2022/04/18 02:01:06;;;;;;;;;;;3.90;99.90;;;;;;5093614;28;19932;-76
2022/04/18 02:03:33;;;;;;;;;;;3.80;99.90;;;;;;5067544;28;19990;-75
2022/04/18 02:06:00;;;;;;;;;;;3.90;99.90;;;;;;5066313;28;19924;-76
2022/04/18 02:08:27;;;;;;;;;;;3.90;99.90;;;;;;5100261;28;19931;-75
2022/04/18 02:10:54;;;;;;;;;;;4.00;99.90;;;;;;5064283;28;19952;-75
2022/04/18 02:13:24;;;;;;;;;;;4.00;99.90;;;;;;5066895;28;19935;-76
2022/04/18 02:15:50;;;;;;;;;;;4.10;99.90;;;;;;5057854;28;20410;-75
2022/04/18 02:18:17;;;;;;;;;;;4.10;99.90;;;;;;5067699;28;20284;-76
2022/04/18 02:20:44;;;;;;;;;;;4.00;99.90;;;;;;5064333;28;19959;-76
2022/04/18 02:23:10;;;;;;;;;;;3.90;99.90;;;;;;5058219;28;19947;-76
2022/04/18 02:25:37;;;;;;;;;;;3.90;99.90;;;;;;5066499;28;19932;-75
2022/04/18 02:28:04;;;;;;;;;;;3.90;99.90;;;;;;5066544;28;19925;-75
2022/04/18 02:30:30;;;;;;;;;;;3.90;99.90;;;;;;5066784;28;20473;-76
2022/04/18 02:32:57;;;;;;;;;;;3.90;99.90;;;;;;5062064;28;19924;-75
2022/04/18 02:35:26;;;;;;;;;;;3.80;99.90;;;;;;5066635;28;19978;-76
2022/04/18 02:37:53;;;;;;;;;;;3.80;99.90;;;;;;5064878;28;19968;-75
2022/04/18 02:40:20;;;;;;;;;;;3.80;99.90;;;;;;5063833;28;19935;-75
2022/04/18 02:42:50;;;;;;;;;;;3.80;99.90;;;;;;5064500;28;19929;-75
2022/04/18 02:45:19;;;;;;;;;;;3.80;99.90;;;;;;5064486;28;19924;-75
2022/04/18 02:47:46;;;;;;;;;;;3.80;99.90;;;;;;5096378;28;20286;-75
2022/04/18 02:50:13;;;;;;;;;;;3.80;99.90;;;;;;5064817;28;19924;-75
2022/04/18 02:52:40;;;;;;;;;;;3.70;99.90;;;;;;5063977;28;19932;-75
2022/04/18 02:55:07;;;;;;;;;;;3.60;99.90;;;;;;5068395;28;19925;-75
2022/04/18 02:57:34;;;;;;;;;;;3.50;99.90;;;;;;5068978;28;19924;-75
2022/04/18 03:00:01;;;;;;;;;;;3.40;99.90;;;;;;5070783;28;19932;-75
2022/04/18 03:02:28;;;;;;;;;;;3.40;99.90;;;;;;5070612;28;20395;-75
2022/04/18 03:04:57;;;;;;;;;;;3.40;99.90;;;;;;5069179;28;20309;-75
2022/04/18 03:07:24;;;;;;;;;;;3.50;99.90;;;;;;5067363;28;20408;-75
2022/04/18 03:09:50;;;;;;;;;;;3.60;99.90;;;;;;5063866;28;20426;-75
2022/04/18 03:12:17;;;;;;;;;;;3.70;99.90;;;;;;5068732;28;20303;-75
2022/04/18 03:14:44;;;;;;;;;;;3.70;99.90;;;;;;5070403;28;19925;-75
2022/04/18 03:17:11;;;;;;;;;;;3.70;99.90;;;;;;5067300;28;20496;-75
2022/04/18 03:19:40;;;;;;;;;;;3.70;99.90;;;;;;5070604;28;19934;-75
2022/04/18 03:22:07;;;;;;;;;;;3.70;99.90;;;;;;5067313;28;19936;-75
2022/04/18 03:24:34;;;;;;;;;;;3.60;99.90;;;;;;5068837;28;19930;-75
2022/04/18 03:27:01;;;;;;;;;;;3.50;99.90;;;;;;5069198;28;20117;-75
2022/04/18 03:29:28;;;;;;;;;;;3.30;99.90;;;;;;5069364;28;20019;-76
2022/04/18 03:31:55;;;;;;;;;;;3.20;99.90;;;;;;5102352;28;19931;-75
2022/04/18 03:34:25;;;;;;;;;;;3.20;99.90;;;;;;5067791;28;20303;-75
2022/04/18 03:40:12;;;;;;;;;;;3.10;99.90;;;;;;5070511;28;19931;-75
2022/04/18 03:42:31;;;;;;;;;;;3.20;99.90;;;;;;5065997;28;19933;-75
2022/04/18 03:45:00;;;;;;;;;;;3.30;99.90;;;;;;5068643;28;19931;-75
2022/04/18 03:47:27;;;;;;;;;;;3.30;99.90;;;;;;5066589;28;20001;-76
2022/04/18 03:49:54;;;;;;;;;;;3.40;99.90;;;;;;5071498;28;19925;-76
2022/04/18 03:52:24;;;;;;;;;;;3.40;99.90;;;;;;5100732;28;20409;-75
2022/04/18 03:54:53;;;;;;;;;;;3.40;99.90;;;;;;5099578;28;19924;-76
2022/04/18 03:57:31;;;;;;;;;;;3.50;99.90;;;;;;5068549;28;20371;-75
2022/04/18 03:59:58;;;;;;;;;;;3.50;99.90;;;;;;5067896;28;19925;-76
2022/04/18 04:02:24;;;;;;;;;;;3.60;99.90;;;;;;5066937;28;19931;-76
2022/04/18 04:04:51;;;;;;;;;;;3.80;99.90;;;;;;5064966;28;20023;-76
2022/04/18 04:07:18;;;;;;;;;;;3.80;99.90;;;;;;5059071;28;19938;-76
2022/04/18 04:09:45;;;;;;;;;;;3.80;99.90;;;;;;5068604;28;20019;-75
2022/04/18 04:12:11;;;;;;;;;;;3.60;99.90;;;;;;5066413;28;19932;-75
2022/04/18 04:14:38;;;;;;;;;;;3.60;99.90;;;;;;5069090;28;19931;-76
2022/04/18 04:17:04;;;;;;;;;;;3.50;99.90;;;;;;5069094;28;20382;-75
2022/04/18 04:19:31;;;;;;;;;;;3.60;99.90;;;;;;5059731;28;19938;-75
2022/04/18 04:21:58;;;;;;;;;;;3.60;99.90;;;;;;5079807;28;20027;-75
2022/04/18 04:24:24;;;;;;;;;;;3.60;99.90;;;;;;5070106;28;19928;-76
2022/04/18 04:26:51;;;;;;;;;;;3.50;99.90;;;;;;5071249;28;20166;-75
2022/04/18 04:29:18;;;;;;;;;;;3.50;99.90;;;;;;5068899;28;19924;-75
2022/04/18 04:31:44;;;;;;;;;;;3.60;99.90;;;;;;5071620;28;20387;-75
2022/04/18 04:34:12;;;;;;;;;;;3.70;99.90;;;;;;5064741;28;20367;-76
2022/04/18 04:36:39;;;;;;;;;;;3.70;99.90;;;;;;5062457;28;20027;-75
2022/04/18 04:39:06;;;;;;;;;;;3.70;99.90;;;;;;5068017;28;20007;-76
2022/04/18 04:41:35;;;;;;;;;;;3.80;99.90;;;;;;5071006;28;20028;-75
2022/04/18 04:44:02;;;;;;;;;;;3.80;99.90;;;;;;5066369;28;20170;-75
2022/04/18 04:46:29;;;;;;;;;;;3.70;99.90;;;;;;5068306;28;19953;-76
2022/04/18 04:48:55;;;;;;;;;;;3.60;99.90;;;;;;5068073;28;19937;-76
2022/04/18 04:51:22;;;;;;;;;;;3.60;99.90;;;;;;5071741;28;20053;-75
2022/04/18 04:53:52;;;;;;;;;;;3.60;99.90;;;;;;5070737;28;19978;-76
2022/04/18 04:56:21;;;;;;;;;;;3.70;99.90;;;;;;5069879;28;19924;-76
2022/04/18 04:58:47;;;;;;;;;;;3.60;99.90;;;;;;5070181;28;20162;-75
2022/04/18 05:01:14;;;;;;;;;;;3.70;99.90;;;;;;5062745;28;19932;-75
2022/04/18 05:03:41;;;;;;;;;;;3.80;99.90;;;;;;5062888;28;20039;-75
2022/04/18 05:06:07;;;;;;;;;;;3.80;99.90;;;;;;5068417;28;19925;-76
2022/04/18 05:08:34;;;;;;;;;;;3.90;99.90;;;;;;5097577;28;20302;-75
2022/04/18 05:11:01;;;;;;;;;;;3.90;99.90;;;;;;5063057;28;19924;-75
2022/04/18 05:13:27;;;;;;;;;;;3.90;99.90;;;;;;5066854;28;20418;-75
2022/04/18 05:15:57;;;;;;;;;;;3.90;99.90;;;;;;5065674;28;20023;-76
2022/04/18 05:18:24;;;;;;;;;;;4.00;99.90;;;;;;5060243;28;19928;-75
2022/04/18 05:20:50;;;;;;;;;;;4.10;99.90;;;;;;5067790;28;19928;-75
2022/04/18 05:23:20;;;;;;;;;;;4.10;99.90;;;;;;5062975;28;21345;-76
2022/04/18 05:25:49;;;;;;;;;;;4.20;99.90;;;;;;5063725;28;19946;-76
2022/04/18 05:28:18;;;;;;;;;;;4.30;99.90;;;;;;5056494;28;20342;-76
2022/04/18 05:30:45;;;;;;;;;;;4.50;99.90;;;;;;5063316;28;19985;-76
2022/04/18 05:33:11;;;;;;;;;;;4.60;99.90;;;;;;5064927;28;19939;-75
2022/04/18 05:35:38;;;;;;;;;;;4.70;99.90;;;;;;5061526;28;19925;-76
2022/04/18 05:38:05;;;;;;;;;;;4.80;99.90;;;;;;5092967;28;20315;-76
2022/04/18 05:40:31;;;;;;;;;;;4.90;99.90;;;;;;5058628;28;20397;-76
2022/04/18 05:43:00;;;;;;;;;;;5.00;99.90;;;;;;5059989;28;20437;-76
2022/04/18 05:45:27;;;;;;;;;;;5.10;99.90;;;;;;5061190;28;19931;-76
2022/04/18 05:47:53;;;;;;;;;;;5.20;99.90;;;;;;5059095;28;19971;-76
2022/04/18 05:50:20;;;;;;;;;;;5.30;99.90;;;;;;5063217;28;20174;-76
2022/04/18 05:52:47;;;;;;;;;;;5.50;99.90;;;;;;5065408;28;19931;-76
2022/04/18 05:55:14;;;;;;;;;;;5.60;99.90;;;;;;5064264;28;19924;-76
2022/04/18 05:57:40;;;;;;;;;;;5.70;99.90;;;;;;5066698;28;19925;-76
2022/04/18 06:00:07;;;;;;;;;;;5.80;99.90;;;;;;5049194;28;19928;-76
2022/04/18 06:02:34;;;;;;;;;;;5.90;99.90;;;;;;5064808;28;20299;-76
2022/04/18 06:05:06;;;;;;;;;;;6.40;99.90;;;;;;5056161;28;19938;-74
2022/04/18 06:07:34;;;;;;;;;;;7.60;99.90;;;;;;5061293;28;19929;-75
2022/04/18 06:10:03;;;;;;;;;;;9.10;99.90;;;;;;5059979;28;19943;-75
2022/04/18 06:12:30;;;;;;;;;;;10.50;99.90;;;;;;5060216;28;19933;-75
2022/04/18 06:14:57;;;;;;;;;;;11.70;98.00;;;;;;5057265;28;19932;-74
2022/04/18 06:17:23;;;;;;;;;;;12.40;96.60;;;;;;5093498;28;19932;-75
2022/04/18 06:19:50;;;;;;;;;;;12.70;95.70;;;;;;5063070;28;19936;-75
2022/04/18 06:22:16;;;;;;;;;;;13.00;95.20;;;;;;5061730;28;19924;-75
2022/04/18 06:24:43;;;;;;;;;;;13.60;94.90;;;;;;5058437;28;19924;-75
2022/04/18 06:27:10;;;;;;;;;;;13.90;94.10;;;;;;5051132;28;19928;-73
2022/04/18 06:29:37;;;;;;;;;;;14.40;93.50;;;;;;5048311;28;19929;-73
2022/04/18 06:32:04;;;;;;;;;;;14.90;93.40;;;;;;5064693;28;19966;-73
2022/04/18 06:34:31;;;;;;;;;;;15.20;92.40;;;;;;5059844;28;19933;-73
2022/04/18 06:36:58;;;;;;;;;;;15.20;92.00;;;;;;5056189;28;19963;-73
2022/04/18 06:39:24;;;;;;;;;;;15.10;92.10;;;;;;5054881;28;20387;-74
2022/04/18 06:41:55;;;;;;;;;;;15.70;91.90;;;;;;5093538;28;19933;-73
2022/04/18 06:44:22;;;;;;;;;;;15.90;91.20;;;;;;5061810;28;19924;-74
2022/04/18 06:46:55;;;;;;;;;;;16.30;90.70;;;;;;5063161;28;19931;-73
2022/04/18 06:49:22;;;;;;;;;;;16.50;90.50;;;;;;5054660;28;20398;-75
2022/04/18 06:51:48;;;;;;;;;;;16.50;90.30;;;;;;5066096;28;20303;-76
2022/04/18 06:54:15;;;;;;;;;;;16.80;90.20;;;;;;5065564;28;20246;-76
2022/04/18 06:57:00;;;;;;;;;;;17.20;90.20;;;;;;5061874;28;19932;-76
2022/04/18 06:59:27;;;;;;;;;;;17.20;89.70;;;;;;5062661;28;19990;-76
2022/04/18 07:01:55;;;;;;;;;;;17.30;88.30;;;;;;5061203;28;19930;-76
2022/04/18 07:04:21;;;;;;;;;;;16.90;87.50;;;;;;5067324;28;19925;-76
2022/04/18 07:06:48;;;;;;;;;;;16.50;88.30;;;;;;5078160;28;20401;-73
2022/04/18 07:09:17;;;;;;;;;;;15.80;88.70;;;;;;5066967;28;19946;-76
2022/04/18 07:11:45;;;;;;;;;;;15.50;89.00;;;;;;5058245;28;19936;-73
2022/04/18 07:14:12;;;;;;;;;;;15.50;90.00;;;;;;5062519;28;19956;-73
2022/04/18 07:16:39;;;;;;;;;;;15.20;89.20;;;;;;5057931;28;19925;-73
2022/04/18 07:19:06;;;;;;;;;;;14.90;89.70;;;;;;5057663;28;20086;-73
2022/04/18 07:21:32;;;;;;;;;;;15.10;90.70;;;;;;5056238;28;19955;-74
2022/04/18 07:23:59;;;;;;;;;;;15.60;90.00;;;;;;5055938;28;19925;-74
2022/04/18 07:26:26;;;;;;;;;;;15.80;88.30;;;;;;5057935;28;19963;-74
2022/04/18 07:28:53;;;;;;;;;;;16.10;88.40;;;;;;5058858;28;19960;-74
2022/04/18 07:31:20;;;;;;;;;;;16.10;86.90;;;;;;5060595;28;19932;-74
2022/04/18 07:33:47;;;;;;;;;;;15.90;87.20;;;;;;5065997;28;20305;-74
2022/04/18 07:36:13;;;;;;;;;;;15.60;87.50;;;;;;5057593;28;19932;-74
2022/04/18 07:38:49;;;;;;;;;;;16.00;88.70;;;;;;5061288;28;20381;-75
2022/04/18 07:41:21;;;;;;;;;;;16.50;89.30;;;;;;5067081;28;19924;-75
2022/04/18 07:43:51;;;;;;;;;;;17.00;87.60;;;;;;5064085;28;20367;-74
2022/04/18 07:46:18;;;;;;;;;;;16.70;87.00;;;;;;5069707;28;20335;-78
2022/04/18 07:48:46;;;;;;;;;;;16.60;88.60;;;;;;5053993;28;19972;-74
2022/04/18 07:53:59;;;;;;;;;;;17.20;86.40;;;;;;5068592;28;19928;-74
2022/04/18 07:56:31;;;;;;;;;;;17.20;86.30;;;;;;5067480;28;19936;-74
2022/04/18 07:58:59;;;;;;;;;;;17.10;86.50;;;;;;5064014;28;19954;-74
2022/04/18 08:01:29;;;;;;;;;;;17.00;85.80;;;;;;5098643;27;19986;-74
2022/04/18 08:03:57;;;;;;;;;;;16.90;85.50;;;;;;5069574;28;19947;-74
2022/04/18 08:06:24;;;;;;;;;;;16.60;85.80;;;;;;5059193;28;20035;-74
2022/04/18 08:08:51;;;;;;;;;;;16.90;85.80;;;;;;5059270;28;20010;-74
2022/04/18 08:11:17;;;;;;;;;;;17.00;86.30;;;;;;5066538;28;19924;-74
2022/04/18 08:13:45;;;;;;;;;;;17.00;87.10;;;;;;5074576;28;19924;-74
2022/04/18 08:16:12;;;;;;;;;;;16.80;85.70;;;;;;5072422;28;19973;-74
2022/04/18 08:18:42;;;;;;;;;;;16.80;86.20;;;;;;5064492;28;20260;-74
2022/04/18 08:21:09;;;;;;;;;;;17.50;86.30;;;;;;5067855;28;19938;-74
2022/04/18 08:23:36;;;;;;;;;;;17.50;84.70;;;;;;5066953;28;20379;-74
2022/04/18 08:26:03;;;;;;;;;;;17.20;86.10;;;;;;5067475;28;19963;-74
2022/04/18 08:28:30;;;;;;;;;;;17.40;86.70;;;;;;5066484;28;20414;-74
2022/04/18 08:30:57;;;;;;;;;;;17.90;86.10;;;;;;5069707;28;20023;-75
2022/04/18 08:33:24;;;;;;;;;;;18.20;85.10;;;;;;5065282;28;19924;-74
2022/04/18 08:35:51;;;;;;;;;;;18.20;83.50;;;;;;5065810;28;19932;-75
2022/04/18 08:38:18;;;;;;;;;;;18.00;85.50;;;;;;5058167;28;19975;-74
2022/04/18 08:40:47;;;;;;;;;;;18.10;82.40;;;;;;5066210;28;19978;-74
2022/04/18 08:43:14;;;;;;;;;;;18.30;83.30;;;;;;5061350;28;19925;-74
2022/04/18 08:45:40;;;;;;;;;;;17.80;81.40;;;;;;5063460;28;20346;-74
2022/04/18 08:53:38;;;;;;;;;;;17.30;83.00;;;;;;5065954;28;20157;-74
2022/04/18 08:56:05;;;;;;;;;;;17.70;83.00;;;;;;5065870;28;20368;-74
2022/04/18 08:58:32;;;;;;;;;;;17.70;82.50;;;;;;5059011;28;19932;-74
2022/04/18 09:01:00;;;;;;;;;;;17.90;81.90;;;;;;5069083;28;19925;-74
2022/04/18 09:03:33;;;;;;;;;;;18.30;81.80;;;;;;5066014;28;19982;-74
2022/04/18 09:06:04;;;;;;;;;;;18.90;80.40;;;;;;5070297;28;19928;-74
2022/04/18 09:08:35;;;;;;;;;;;18.40;79.50;;;;;;5067152;28;19939;-74
2022/04/18 09:11:01;;;;;;;;;;;18.00;79.20;;;;;;5062915;28;21994;-74
2022/04/18 09:13:28;;;;;;;;;;;17.70;81.70;;;;;;5057824;28;19939;-74
2022/04/18 09:15:55;;;;;;;;;;;17.80;81.60;;;;;;5071411;28;19936;-74
2022/04/18 09:18:23;;;;;;;;;;;18.10;81.80;;;;;;5065626;28;19971;-74
2022/04/18 09:20:50;;;;;;;;;;;18.30;79.70;;;;;;5066243;28;19939;-74
2022/04/18 09:23:25;;;;;;;;;;;17.80;80.10;;;;;;5066448;28;19932;-74
2022/04/18 09:25:55;;;;;;;;;;;18.00;80.30;;;;;;5065112;28;19935;-75
2022/04/18 09:28:25;;;;;;;;;;;18.90;79.90;;;;;;5064057;28;19994;-72
2022/04/18 09:30:59;;;;;;;;;;;19.20;78.30;;;;;;5065442;28;19936;-74
2022/04/18 09:33:33;;;;;;;;;;;19.40;78.10;;;;;;5063951;28;19979;-74
2022/04/18 09:36:08;;;;;;;;;;;19.30;78.00;;;;;;5067422;28;20291;-74
2022/04/18 09:38:38;;;;;;;;;;;19.40;78.30;;;;;;5067651;28;19925;-75
2022/04/18 09:41:05;;;;;;;;;;;19.00;78.40;;;;;;5063049;28;19931;-74
2022/04/18 09:43:39;;;;;;;;;;;18.70;78.20;;;;;;5066190;28;19938;-74
2022/04/18 09:46:06;;;;;;;;;;;18.10;80.50;;;;;;5062082;28;19924;-74
2022/04/18 09:48:36;;;;;;;;;;;17.60;81.70;;;;;;5065541;28;20027;-74
2022/04/18 09:51:08;;;;;;;;;;;17.80;81.50;;;;;;5063115;28;19924;-74
2022/04/18 09:53:36;;;;;;;;;;;18.10;81.30;;;;;;5063919;28;19932;-74
2022/04/18 09:56:03;;;;;;;;;;;18.20;81.00;;;;;;5062921;28;19931;-74
2022/04/18 09:58:31;;;;;;;;;;;18.10;81.40;;;;;;5061929;28;19936;-74
2022/04/18 10:01:17;;;;;;;;;;;17.80;81.00;;;;;;5054224;28;19932;-73
2022/04/18 10:03:46;;;;;;;;;;;17.80;82.70;;;;;;5053894;28;20371;-74
2022/04/18 10:06:13;;;;;;;;;;;17.80;81.20;;;;;;5064941;28;20306;-74
2022/04/18 10:08:40;;;;;;;;;;;17.70;81.70;;;;;;5066657;28;19924;-73
2022/04/18 10:11:11;;;;;;;;;;;17.90;82.70;;;;;;5062591;28;19924;-74
2022/04/18 10:13:38;;;;;;;;;;;18.20;83.00;;;;;;5061983;28;20123;-74
2022/04/18 10:16:05;;;;;;;;;;;18.70;83.60;;;;;;5059631;28;19924;-74
2022/04/18 10:18:39;;;;;;;;;;;18.40;81.70;;;;;;5057744;28;19967;-74
2022/04/18 10:21:06;;;;;;;;;;;18.50;80.70;;;;;;5060276;28;19924;-74
2022/04/18 10:23:51;;;;;;;;;;;18.80;80.80;;;;;;5063719;28;19925;-73
2022/04/18 10:26:33;;;;;;;;;;;18.80;79.40;;;;;;5064808;28;19924;-73
2022/04/18 10:29:03;;;;;;;;;;;19.20;79.50;;;;;;5058467;28;20383;-74
2022/04/18 10:31:32;;;;;;;;;;;20.10;78.20;;;;;;5059699;28;20415;-74
2022/04/18 10:33:59;;;;;;;;;;;20.90;77.70;;;;;;5059783;28;19947;-74
2022/04/18 10:36:27;;;;;;;;;;;20.70;76.30;;;;;;5066204;28;20291;-74
2022/04/18 10:38:55;;;;;;;;;;;20.40;79.20;;;;;;5067358;28;19924;-74
2022/04/18 10:41:32;;;;;;;;;;;20.40;78.40;;;;;;5060199;28;19935;-74
2022/04/18 10:44:18;;;;;;;;;;;19.70;78.40;;;;;;5061618;28;19931;-74
2022/04/18 10:46:49;;;;;;;;;;;19.70;77.70;;;;;;5070561;28;19928;-74
2022/04/18 10:49:17;;;;;;;;;;;19.20;78.60;;;;;;5065395;28;19931;-73
2022/04/18 10:51:45;;;;;;;;;;;18.90;78.40;;;;;;5061485;28;20516;-74
2022/04/18 10:54:12;;;;;;;;;;;18.90;78.30;;;;;;5053993;28;20065;-74
2022/04/18 10:56:48;;;;;;;;;;;19.00;78.60;;;;;;5067205;28;19925;-74
2022/04/18 10:59:15;;;;;;;;;;;19.00;79.20;;;;;;5068947;28;19967;-74
2022/04/18 11:01:45;;;;;;;;;;;19.10;79.70;;;;;;5058764;28;20375;-74
2022/04/18 11:04:13;;;;;;;;;;;19.40;79.70;;;;;;5055962;28;19928;-74
2022/04/18 11:06:55;;;;;;;;;;;19.50;79.20;;;;;;5062023;28;20366;-77
2022/04/18 11:09:22;;;;;;;;;;;19.70;78.30;;;;;;5057698;28;19928;-74
2022/04/18 11:11:53;;;;;;;;;;;19.50;78.40;;;;;;5057879;28;20584;-74
2022/04/18 11:14:24;;;;;;;;;;;19.60;79.70;;;;;;5057786;28;19943;-74
2022/04/18 11:16:56;;;;;;;;;;;19.60;77.30;;;;;;5057325;28;19924;-74
2022/04/18 11:19:24;;;;;;;;;;;19.80;80.00;;;;;;5058790;28;20123;-75
2022/04/18 11:22:01;;;;;;;;;;;19.20;78.40;;;;;;5070433;28;19924;-75
2022/04/18 11:24:46;;;;;;;;;;;19.20;79.10;;;;;;5067311;28;19929;-75
2022/04/18 11:27:17;;;;;;;;;;;19.10;78.10;;;;;;5074221;28;20051;-75
2022/04/18 11:29:44;;;;;;;;;;;19.20;79.70;;;;;;5068468;28;20211;-74
2022/04/18 11:32:21;;;;;;;;;;;19.30;77.80;;;;;;5081570;28;19932;-75
2022/04/18 11:34:50;;;;;;;;;;;19.30;78.30;;;;;;5065899;28;19932;-75
2022/04/18 11:37:21;;;;;;;;;;;19.20;77.70;;;;;;5055787;28;19929;-75
2022/04/18 11:39:49;;;;;;;;;;;19.50;78.90;;;;;;5068752;28;19928;-73
2022/04/18 11:42:17;;;;;;;;;;;19.70;77.60;;;;;;5061707;28;19947;-73
2022/04/18 11:44:45;;;;;;;;;;;19.80;77.80;;;;;;5065375;28;20224;-74
2022/04/18 11:47:16;;;;;;;;;;;19.50;78.90;;;;;;5059436;28;19951;-75
2022/04/18 11:49:45;;;;;;;;;;;19.70;79.20;;;;;;5066481;28;19924;-74
2022/04/18 11:52:19;;;;;;;;;;;19.60;80.10;;;;;;5060209;28;20046;-74
2022/04/18 11:55:01;;;;;;;;;;;19.70;78.90;;;;;;5063805;28;20015;-74
2022/04/18 11:57:29;;;;;;;;;;;20.00;77.90;;;;;;5067531;28;20250;-74
2022/04/18 11:59:56;;;;;;;;;;;20.10;77.90;;;;;;5063993;28;19928;-74
2022/04/18 12:08:06;;;;;;;;;;;20.30;77.10;;;;;;5062078;28;20387;-75
2022/04/18 12:10:45;;;;;;;;;;;20.50;77.60;;;;;;5066071;28;19948;-75
2022/04/18 12:13:12;;;;;;;;;;;20.50;76.40;;;;;;5064396;28;19924;-75
2022/04/18 12:15:40;;;;;;;;;;;20.70;76.20;;;;;;5062295;28;19936;-75
2022/04/18 12:18:14;;;;;;;;;;;21.00;76.70;;;;;;5064896;28;19924;-75
2022/04/18 12:20:51;;;;;;;;;;;21.10;76.70;;;;;;5066793;28;19928;-74
2022/04/18 12:23:19;;;;;;;;;;;20.90;77.30;;;;;;5054156;28;20022;-74
2022/04/18 12:25:47;;;;;;;;;;;20.70;77.80;;;;;;5059221;28;19966;-75
2022/04/18 12:28:15;;;;;;;;;;;20.50;77.50;;;;;;5068129;28;20370;-75
2022/04/18 12:30:42;;;;;;;;;;;20.00;77.10;;;;;;5063740;28;19932;-75
2022/04/18 12:33:24;;;;;;;;;;;19.70;78.20;;;;;;5068765;28;19928;-75
2022/04/18 12:35:52;;;;;;;;;;;19.80;79.30;;;;;;5059701;28;19932;-75
2022/04/18 12:38:20;;;;;;;;;;;20.10;77.60;;;;;;5065453;28;19936;-73
2022/04/18 12:40:54;;;;;;;;;;;20.60;76.60;;;;;;5063782;28;19925;-73
2022/04/18 12:43:25;;;;;;;;;;;21.00;76.50;;;;;;5070996;28;19925;-75
2022/04/18 12:45:55;;;;;;;;;;;20.70;77.30;;;;;;5097760;28;19937;-73
2022/04/18 12:48:23;;;;;;;;;;;20.80;76.60;;;;;;5062877;28;20295;-74
2022/04/18 12:50:53;;;;;;;;;;;20.90;75.00;;;;;;5065477;28;19928;-74
2022/04/18 12:53:20;;;;;;;;;;;21.00;77.30;;;;;;5054101;28;19924;-74
2022/04/18 12:56:02;;;;;;;;;;;21.10;77.00;;;;;;5064208;28;20302;-74
2022/04/18 12:58:35;;;;;;;;;;;20.90;75.70;;;;;;5057718;28;20571;-74
2022/04/18 13:01:04;;;;;;;;;;;21.00;76.00;;;;;;5056957;28;19933;-74
2022/04/18 13:03:40;;;;;;;;;;;21.20;75.80;;;;;;5071758;28;19928;-74
2022/04/18 13:06:07;;;;;;;;;;;21.40;74.80;;;;;;5067051;28;19925;-74
2022/04/18 13:08:40;;;;;;;;;;;21.60;74.70;;;;;;5060608;28;20125;-74
2022/04/18 13:11:10;;;;;;;;;;;21.60;74.90;;;;;;5059749;28;19924;-75
2022/04/18 13:13:37;;;;;;;;;;;22.00;74.40;;;;;;5063302;28;20292;-74
2022/04/18 13:16:23;;;;;;;;;;;22.00;74.90;;;;;;5066710;28;19932;-75
2022/04/18 13:19:00;;;;;;;;;;;21.80;74.30;;;;;;5063659;28;20404;-75
2022/04/18 13:21:28;;;;;;;;;;;21.90;75.30;;;;;;5064760;28;20411;-75
2022/04/18 13:23:58;;;;;;;;;;;22.00;76.40;;;;;;5060290;28;19960;-75
2022/04/18 13:26:29;;;;;;;;;;;22.00;74.80;;;;;;5065794;28;19924;-75
2022/04/18 13:28:55;;;;;;;;;;;22.10;74.80;;;;;;5063777;28;19928;-75
2022/04/18 13:31:23;;;;;;;;;;;22.00;74.60;;;;;;5066221;28;19929;-75
2022/04/18 13:33:51;;;;;;;;;;;22.30;75.20;;;;;;5059977;28;20247;-75
2022/04/18 13:36:33;;;;;;;;;;;23.10;75.60;;;;;;5060110;28;19931;-75
2022/04/18 13:39:00;;;;;;;;;;;23.00;74.00;;;;;;5061493;28;20608;-75
2022/04/18 13:41:27;;;;;;;;;;;23.50;73.90;;;;;;5065453;28;19997;-75
2022/04/18 13:43:53;;;;;;;;;;;23.20;72.20;;;;;;5055601;28;19925;-75
2022/04/18 13:46:20;;;;;;;;;;;22.90;72.90;;;;;;5064523;28;19924;-75
2022/04/18 13:48:50;;;;;;;;;;;23.10;72.00;;;;;;5064621;28;19935;-75
2022/04/18 13:51:17;;;;;;;;;;;23.30;72.20;;;;;;5065511;28;20375;-75
2022/04/18 13:53:44;;;;;;;;;;;24.10;71.80;;;;;;5062919;28;19928;-75
2022/04/18 13:56:11;;;;;;;;;;;25.10;71.50;;;;;;5063745;28;19924;-75
2022/04/18 13:58:37;;;;;;;;;;;25.50;69.90;;;;;;5062668;28;19925;-74
2022/04/18 14:01:05;;;;;;;;;;;25.40;70.00;;;;;;5063220;28;19935;-75
2022/04/18 14:03:33;;;;;;;;;;;25.20;69.60;;;;;;5050918;28;20398;-75
2022/04/18 14:06:04;;;;;;;;;;;25.10;69.50;;;;;;5058897;28;19925;-75
2022/04/18 14:08:35;;;;;;;;;;;24.50;69.40;;;;;;5064621;28;19932;-74
2022/04/18 14:11:02;;;;;;;;;;;24.20;70.80;;;;;;5060372;28;19928;-75
2022/04/18 14:13:29;;;;;;;;;;;24.10;71.90;;;;;;5063159;28;20397;-75
2022/04/18 14:21:27;;;;;;;;;;;24.50;70.30;;;;;;5064947;28;19939;-75
2022/04/18 14:23:54;;;;;;;;;;;25.00;71.00;;;;;;5067124;28;20354;-75
2022/04/18 14:26:23;;;;;;;;;;;24.90;69.30;;;;;;5061087;28;19925;-75
2022/04/18 14:28:51;;;;;;;;;;;25.20;69.50;;;;;;5061137;28;19974;-76
2022/04/18 14:31:20;;;;;;;;;;;26.40;69.20;;;;;;5060471;28;19932;-75
2022/04/18 14:33:51;;;;;;;;;;;27.30;68.70;;;;;;5062064;28;19939;-75
2022/04/18 14:36:20;;;;;;;;;;;26.70;67.90;;;;;;5060341;28;21443;-75
2022/04/18 14:38:47;;;;;;;;;;;26.30;68.80;;;;;;5059858;28;20465;-73
2022/04/18 14:41:14;;;;;;;;;;;26.80;68.30;;;;;;5060754;28;19932;-75
2022/04/18 14:43:40;;;;;;;;;;;27.50;67.70;;;;;;5060684;28;20382;-75
2022/04/18 14:46:07;;;;;;;;;;;27.90;65.90;;;;;;5051653;28;19925;-75
2022/04/18 14:48:34;;;;;;;;;;;27.60;66.00;;;;;;5058215;28;20319;-75
2022/04/18 14:51:04;;;;;;;;;;;27.10;66.00;;;;;;5066950;28;19933;-75
2022/04/18 14:53:30;;;;;;;;;;;27.50;64.60;;;;;;5063853;28;19962;-75
2022/04/18 14:55:58;;;;;;;;;;;27.90;64.00;;;;;;5064384;28;20134;-75
2022/04/18 14:58:24;;;;;;;;;;;27.60;64.60;;;;;;5098941;27;20317;-75